Time;durP1;ratioP1;P1;durP2;ratioP2;P2;SDS_P1;SDS_P2;PMS_P1;PMS_P2;Temp;Humidity;BMP_temperature;BMP_pressure;BME280_temperature;BME280_humidity;BME280_pressure;Samples;Min_cycle;Max_cycle;Signal;HPM_P1;HPM_P2
2021/12/19 00:01:44;;;;;;;137.63;37.65;;;6.80;87.10;;;;;;4936812;29;20054;-80
2021/12/19 00:04:19;;;;;;;123.95;35.90;;;6.70;87.10;;;;;;4936352;29;20052;-81
2021/12/19 00:09:32;;;;;;;125.82;34.85;;;6.80;87.10;;;;;;4924201;29;20047;-80
2021/12/19 00:11:59;;;;;;;119.80;35.42;;;6.80;87.10;;;;;;4936553;29;20051;-80
2021/12/19 00:14:27;;;;;;;125.53;35.53;;;6.80;87.10;;;;;;4935802;29;20134;-80
2021/12/19 00:16:54;;;;;;;126.75;36.92;;;6.80;87.10;;;;;;4936518;29;20058;-80
2021/12/19 00:19:21;;;;;;;123.55;35.47;;;6.80;87.10;;;;;;4935991;29;20505;-80
2021/12/19 00:21:49;;;;;;;131.85;34.90;;;6.80;87.20;;;;;;4936379;29;20403;-81
2021/12/19 00:24:16;;;;;;;137.98;36.78;;;6.80;87.20;;;;;;4935521;29;20532;-80
2021/12/19 00:26:44;;;;;;;111.72;32.75;;;6.80;87.20;;;;;;4935512;29;20051;-80
2021/12/19 00:29:11;;;;;;;125.72;36.22;;;6.80;87.20;;;;;;4938009;28;20062;-80
2021/12/19 00:31:38;;;;;;;134.52;36.47;;;6.80;87.20;;;;;;4936227;29;20039;-80
2021/12/19 00:34:06;;;;;;;150.48;38.92;;;6.80;87.20;;;;;;4935830;29;20051;-80
2021/12/19 00:36:33;;;;;;;148.95;41.05;;;6.80;87.10;;;;;;4935225;29;20044;-81
2021/12/19 00:39:00;;;;;;;150.23;42.08;;;6.80;87.10;;;;;;4936248;29;20052;-80
2021/12/19 00:41:27;;;;;;;167.70;44.22;;;6.80;87.20;;;;;;4935368;29;20056;-80
2021/12/19 00:44:07;;;;;;;147.23;43.25;;;6.80;87.20;;;;;;4936130;29;20442;-80
2021/12/19 00:46:43;;;;;;;146.68;43.45;;;6.80;87.20;;;;;;4935750;29;20429;-81
2021/12/19 00:49:11;;;;;;;144.15;42.20;;;6.80;87.20;;;;;;4935342;29;20046;-81
2021/12/19 00:51:39;;;;;;;145.93;43.38;;;6.80;87.20;;;;;;4935863;29;20047;-80
2021/12/19 00:54:09;;;;;;;147.20;42.72;;;6.80;87.10;;;;;;4936070;29;20051;-80
2021/12/19 00:56:43;;;;;;;144.90;41.85;;;6.80;87.20;;;;;;4935201;29;20047;-81
2021/12/19 00:59:12;;;;;;;149.57;44.53;;;6.80;87.20;;;;;;4937400;29;20107;-80
2021/12/19 01:01:43;;;;;;;145.35;43.70;;;6.80;87.20;;;;;;4935451;29;20417;-80
2021/12/19 01:04:12;;;;;;;137.10;42.65;;;6.80;87.10;;;;;;4935803;29;20048;-80
2021/12/19 01:06:41;;;;;;;145.93;42.88;;;6.80;87.10;;;;;;4936105;29;20044;-80
2021/12/19 01:09:09;;;;;;;147.15;43.58;;;6.80;87.20;;;;;;4935967;29;20044;-81
2021/12/19 01:11:38;;;;;;;139.10;41.70;;;6.80;87.10;;;;;;4935041;29;20060;-81
2021/12/19 01:14:07;;;;;;;121.70;38.53;;;6.80;87.20;;;;;;4935887;29;20051;-81
2021/12/19 01:16:34;;;;;;;141.30;42.65;;;6.80;87.10;;;;;;4935484;29;20054;-80
2021/12/19 01:19:01;;;;;;;128.18;38.80;;;6.80;87.10;;;;;;4935846;29;20060;-81
2021/12/19 01:21:28;;;;;;;129.15;39.85;;;6.80;87.10;;;;;;4935747;29;20058;-81
2021/12/19 01:23:55;;;;;;;125.30;40.47;;;6.80;87.10;;;;;;4935651;29;20048;-80
2021/12/19 01:26:23;;;;;;;135.05;41.30;;;6.80;87.10;;;;;;4934935;28;20403;-80
2021/12/19 01:28:50;;;;;;;133.48;39.60;;;6.80;87.10;;;;;;4935757;29;20510;-81
2021/12/19 01:31:17;;;;;;;117.35;37.00;;;6.80;87.10;;;;;;4935022;29;20051;-81
2021/12/19 01:33:44;;;;;;;131.90;38.33;;;6.80;87.10;;;;;;4935727;29;20050;-80
2021/12/19 01:36:12;;;;;;;132.68;38.20;;;6.80;87.10;;;;;;4935660;29;20062;-80
2021/12/19 01:38:39;;;;;;;131.48;38.00;;;6.80;87.10;;;;;;4934897;29;20405;-80
2021/12/19 01:41:07;;;;;;;149.95;39.13;;;6.80;87.10;;;;;;4935540;29;20056;-80
2021/12/19 01:43:34;;;;;;;127.32;35.95;;;6.80;87.10;;;;;;4935492;29;20044;-82
2021/12/19 01:46:03;;;;;;;119.25;35.45;;;6.80;87.10;;;;;;4935091;29;20198;-81
2021/12/19 01:48:30;;;;;;;122.47;35.67;;;6.70;87.10;;;;;;4935649;29;20054;-81
2021/12/19 01:50:57;;;;;;;122.00;35.08;;;6.70;87.10;;;;;;4935220;29;20052;-81
2021/12/19 01:53:24;;;;;;;130.13;35.70;;;6.70;87.10;;;;;;4932905;29;20066;-81
2021/12/19 01:55:52;;;;;;;120.85;34.22;;;6.70;87.10;;;;;;4935277;29;20063;-81
2021/12/19 01:58:19;;;;;;;128.07;35.17;;;6.70;87.10;;;;;;4935499;29;20040;-81
2021/12/19 02:00:52;;;;;;;129.18;35.00;;;6.70;87.10;;;;;;4938462;29;20054;-81
2021/12/19 02:03:20;;;;;;;130.88;34.22;;;6.70;87.10;;;;;;4924769;29;20063;-81
2021/12/19 02:05:48;;;;;;;125.25;32.05;;;6.70;87.10;;;;;;4938153;29;20055;-82
2021/12/19 02:08:16;;;;;;;111.78;30.25;;;6.70;87.10;;;;;;4936859;29;20059;-81
2021/12/19 02:10:45;;;;;;;105.05;30.65;;;6.70;87.10;;;;;;4938696;29;20054;-81
2021/12/19 02:13:13;;;;;;;106.40;29.73;;;6.70;87.10;;;;;;4938828;29;20059;-81
2021/12/19 02:15:43;;;;;;;112.63;31.58;;;6.70;87.10;;;;;;4938504;29;20054;-81
2021/12/19 02:18:17;;;;;;;102.97;30.30;;;6.70;87.10;;;;;;4938797;29;20055;-81
2021/12/19 02:20:50;;;;;;;115.72;32.13;;;6.70;87.10;;;;;;4934167;29;20502;-81
2021/12/19 02:23:19;;;;;;;108.20;31.00;;;6.70;87.10;;;;;;4938037;29;20111;-81
2021/12/19 02:25:47;;;;;;;107.90;29.35;;;6.70;87.10;;;;;;4938628;29;20048;-81
2021/12/19 02:28:14;;;;;;;105.22;31.33;;;6.70;87.10;;;;;;4938151;29;20043;-81
2021/12/19 02:30:41;;;;;;;95.53;29.05;;;6.70;87.10;;;;;;4938532;29;20058;-81
2021/12/19 02:33:11;;;;;;;105.43;29.45;;;6.70;87.10;;;;;;4938458;29;20407;-80
2021/12/19 02:35:40;;;;;;;109.13;29.42;;;6.70;87.10;;;;;;4937932;29;20070;-80
2021/12/19 02:49:33;;;;;;;100.35;29.40;;;6.70;87.10;;;;;;4936054;29;20533;-80
2021/12/19 02:52:03;;;;;;;98.28;27.40;;;6.70;87.20;;;;;;4935885;29;20074;-80
2021/12/19 02:54:30;;;;;;;94.07;27.30;;;6.70;87.20;;;;;;4935880;29;20062;-80
2021/12/19 02:56:58;;;;;;;94.03;27.70;;;6.70;87.20;;;;;;4935578;29;20568;-80
2021/12/19 02:59:25;;;;;;;100.18;28.70;;;6.70;87.20;;;;;;4917703;28;20130;-80
2021/12/19 03:01:53;;;;;;;96.80;27.63;;;6.70;87.20;;;;;;4935645;29;20062;-80
2021/12/19 03:04:22;;;;;;;84.18;26.05;;;6.70;87.20;;;;;;4935793;29;20498;-80
2021/12/19 03:06:50;;;;;;;99.82;29.30;;;6.70;87.20;;;;;;4935626;29;20048;-80
2021/12/19 03:12:25;;;;;;;83.95;24.95;;;6.60;87.20;;;;;;4896847;29;20049;-81
2021/12/19 03:20:28;;;;;;;83.25;25.13;;;6.60;87.20;;;;;;4882642;29;20072;-80
2021/12/19 03:22:58;;;;;;;82.47;24.45;;;6.60;87.20;;;;;;4878911;29;20049;-80
2021/12/19 03:25:26;;;;;;;81.40;25.80;;;6.60;87.20;;;;;;4878814;29;20535;-80
2021/12/19 03:27:53;;;;;;;83.35;25.75;;;6.60;87.10;;;;;;4878530;29;20056;-81
2021/12/19 03:30:20;;;;;;;75.72;24.80;;;6.60;87.20;;;;;;4878861;29;20045;-80
2021/12/19 03:32:48;;;;;;;76.68;24.85;;;6.60;87.20;;;;;;4877879;29;20057;-80
2021/12/19 03:35:15;;;;;;;80.40;25.05;;;6.60;87.10;;;;;;4879004;29;20081;-80
2021/12/19 03:37:43;;;;;;;69.18;24.08;;;6.60;87.10;;;;;;4878596;29;20062;-81
2021/12/19 03:40:13;;;;;;;77.95;24.90;;;6.60;87.10;;;;;;4878339;29;20055;-80
2021/12/19 03:42:43;;;;;;;69.85;22.63;;;6.60;87.10;;;;;;4878194;29;20049;-80
2021/12/19 03:45:15;;;;;;;71.57;24.50;;;6.60;87.10;;;;;;4878727;29;20236;-80
2021/12/19 03:47:43;;;;;;;67.25;23.45;;;6.60;87.10;;;;;;4874294;29;20053;-81
2021/12/19 03:50:15;;;;;;;78.03;23.95;;;6.50;87.10;;;;;;4930472;29;20056;-80
2021/12/19 03:52:42;;;;;;;62.53;23.15;;;6.50;87.10;;;;;;4936898;29;20047;-81
2021/12/19 03:55:10;;;;;;;73.22;23.90;;;6.50;87.10;;;;;;4936601;29;20066;-80
2021/12/19 03:57:37;;;;;;;71.72;23.73;;;6.50;87.10;;;;;;4937035;29;20526;-81
2021/12/19 04:00:09;;;;;;;77.95;25.60;;;6.50;87.10;;;;;;4936835;29;20055;-80
2021/12/19 04:02:36;;;;;;;71.88;23.90;;;6.50;87.10;;;;;;4936095;29;20503;-80
2021/12/19 04:05:03;;;;;;;79.82;24.80;;;6.50;87.10;;;;;;4936819;29;20561;-81
2021/12/19 04:07:30;;;;;;;70.55;23.83;;;6.50;87.10;;;;;;4936622;29;20074;-80
2021/12/19 04:09:57;;;;;;;76.25;23.98;;;6.50;87.10;;;;;;4936393;29;20055;-80
2021/12/19 04:12:27;;;;;;;88.13;26.38;;;6.40;87.00;;;;;;4937034;29;20087;-80
2021/12/19 04:14:55;;;;;;;71.43;23.98;;;6.50;87.10;;;;;;4936236;29;20052;-81
2021/12/19 04:17:22;;;;;;;73.82;23.70;;;6.40;87.10;;;;;;4935732;28;20056;-80
2021/12/19 04:19:49;;;;;;;69.20;24.02;;;6.40;87.10;;;;;;4936544;29;20075;-80
2021/12/19 04:22:17;;;;;;;76.07;24.83;;;6.40;87.10;;;;;;4935603;29;20870;-80
2021/12/19 04:24:44;;;;;;;65.55;23.27;;;6.40;87.10;;;;;;4936027;29;20044;-81
2021/12/19 04:27:11;;;;;;;69.25;24.80;;;6.40;87.10;;;;;;4921248;29;20128;-80
2021/12/19 04:29:38;;;;;;;69.95;23.55;;;6.40;87.10;;;;;;4935781;29;20078;-80
2021/12/19 04:32:07;;;;;;;71.45;23.35;;;6.40;87.00;;;;;;4936229;29;20059;-80
2021/12/19 04:34:34;;;;;;;67.32;22.85;;;6.40;87.10;;;;;;4936397;29;20048;-80
2021/12/19 04:37:11;;;;;;;73.35;24.17;;;6.40;87.00;;;;;;4936277;29;20066;-80
2021/12/19 04:39:52;;;;;;;74.57;23.77;;;6.40;87.00;;;;;;4935900;29;20048;-80
2021/12/19 05:06:02;;;;;;;63.60;23.50;;;6.20;87.00;;;;;;4935384;29;20083;-80
2021/12/19 05:16:40;;;;;;;67.72;22.25;;;6.20;87.10;;;;;;4935711;29;20048;-80
2021/12/19 05:19:20;;;;;;;59.17;20.05;;;6.20;87.10;;;;;;4935800;29;20537;-80
2021/12/19 05:21:49;;;;;;;51.40;20.73;;;6.20;87.10;;;;;;4935631;29;20517;-80
2021/12/19 05:26:47;;;;;;;57.75;19.80;;;6.20;87.10;;;;;;4934961;29;20052;-82
2021/12/19 05:29:17;;;;;;;53.90;19.63;;;6.20;87.10;;;;;;4935609;29;20056;-81
2021/12/19 05:31:44;;;;;;;54.15;19.83;;;6.20;87.00;;;;;;4935554;29;20435;-81
2021/12/19 05:34:12;;;;;;;45.08;17.80;;;6.20;87.00;;;;;;4936780;29;20054;-81
2021/12/19 05:47:25;;;;;;;51.95;19.20;;;6.10;86.90;;;;;;4936742;29;20528;-81
2021/12/19 05:49:53;;;;;;;43.90;17.52;;;6.10;87.00;;;;;;4939085;29;20127;-81
2021/12/19 05:52:20;;;;;;;48.88;18.23;;;6.10;86.90;;;;;;4938987;29;20047;-81
2021/12/19 05:54:46;;;;;;;50.72;18.00;;;6.00;86.90;;;;;;4933591;29;20066;-81
2021/12/19 05:57:15;;;;;;;45.17;17.95;;;6.00;86.90;;;;;;4939270;29;20422;-81
2021/12/19 05:59:42;;;;;;;43.25;17.27;;;6.00;86.90;;;;;;4938533;29;20515;-81
2021/12/19 06:02:09;;;;;;;48.55;17.38;;;6.00;86.90;;;;;;4938960;29;20063;-81
2021/12/19 06:04:36;;;;;;;46.95;17.02;;;6.00;86.90;;;;;;4939131;29;20065;-81
2021/12/19 06:07:03;;;;;;;44.55;17.40;;;6.00;86.90;;;;;;4938600;29;20411;-81
2021/12/19 06:09:30;;;;;;;47.92;16.75;;;6.00;86.90;;;;;;4939011;29;20124;-81
2021/12/19 06:11:57;;;;;;;47.10;17.67;;;6.00;86.90;;;;;;4938880;29;20054;-80
2021/12/19 06:14:29;;;;;;;49.38;17.77;;;6.00;86.90;;;;;;4936293;29;20062;-81
2021/12/19 06:16:56;;;;;;;48.97;17.67;;;6.00;86.90;;;;;;4938847;29;20098;-80
2021/12/19 06:19:22;;;;;;;53.38;18.83;;;5.90;86.90;;;;;;4938677;29;20048;-80
2021/12/19 06:21:49;;;;;;;47.17;16.75;;;6.00;86.90;;;;;;4938308;29;20044;-81
2021/12/19 06:24:16;;;;;;;49.40;17.20;;;5.90;86.90;;;;;;4938768;29;20044;-81
2021/12/19 06:26:43;;;;;;;47.50;17.80;;;5.90;86.90;;;;;;4936599;29;20056;-81
2021/12/19 06:29:11;;;;;;;48.17;18.05;;;5.90;86.90;;;;;;4938647;28;20046;-80
2021/12/19 06:31:38;;;;;;;46.28;17.33;;;5.90;86.90;;;;;;4938492;29;20055;-80
2021/12/19 06:34:05;;;;;;;50.53;19.40;;;5.90;86.90;;;;;;4938483;29;20054;-81
2021/12/19 06:36:32;;;;;;;59.72;23.67;;;5.90;86.90;;;;;;4938362;29;20047;-81
2021/12/19 06:39:00;;;;;;;48.72;19.52;;;5.90;86.90;;;;;;4938436;29;20052;-81
2021/12/19 06:41:27;;;;;;;46.85;19.77;;;5.90;86.90;;;;;;4937535;29;20110;-81
2021/12/19 06:43:54;;;;;;;47.67;18.77;;;5.90;86.90;;;;;;4938192;29;20047;-81
2021/12/19 06:46:21;;;;;;;51.03;19.88;;;5.90;86.90;;;;;;4937315;29;20052;-81
2021/12/19 06:48:48;;;;;;;48.05;18.77;;;5.90;86.90;;;;;;4938385;29;20046;-81
2021/12/19 06:51:16;;;;;;;51.97;19.67;;;5.90;86.90;;;;;;4938364;29;20058;-81
2021/12/19 06:53:43;;;;;;;49.47;19.42;;;5.90;86.90;;;;;;4937537;29;20052;-80
2021/12/19 06:56:10;;;;;;;55.20;18.38;;;5.90;86.90;;;;;;4939404;29;20059;-80
2021/12/19 06:58:38;;;;;;;47.40;18.02;;;5.90;86.90;;;;;;4938103;29;20050;-80
2021/12/19 07:01:05;;;;;;;51.97;19.85;;;5.80;86.90;;;;;;4937889;29;20058;-80
2021/12/19 07:03:32;;;;;;;43.95;18.38;;;5.80;86.90;;;;;;4937664;29;20048;-80
2021/12/19 07:05:59;;;;;;;44.47;18.67;;;5.80;86.90;;;;;;4938040;29;20044;-81
2021/12/19 07:08:26;;;;;;;50.75;19.38;;;5.80;86.90;;;;;;4937241;29;20062;-80
2021/12/19 07:10:53;;;;;;;46.00;19.40;;;5.80;86.90;;;;;;4938044;29;20044;-81
2021/12/19 07:13:21;;;;;;;46.53;19.48;;;5.80;86.90;;;;;;4937587;29;20523;-80
2021/12/19 07:15:53;;;;;;;44.42;18.90;;;5.80;86.90;;;;;;4937675;29;20054;-81
2021/12/19 07:18:20;;;;;;;47.30;19.45;;;5.80;86.90;;;;;;4937409;29;20044;-80
2021/12/19 07:20:47;;;;;;;42.38;18.58;;;5.80;86.90;;;;;;4936706;29;20062;-81
2021/12/19 07:23:21;;;;;;;48.83;19.95;;;5.80;86.90;;;;;;4938405;29;20055;-80
2021/12/19 07:25:48;;;;;;;51.03;21.00;;;5.80;86.90;;;;;;4937493;29;20054;-80
2021/12/19 07:28:15;;;;;;;46.17;19.20;;;5.70;86.90;;;;;;4937499;29;20059;-80
2021/12/19 07:30:47;;;;;;;45.40;17.83;;;5.70;86.90;;;;;;4937278;29;20126;-80
2021/12/19 07:33:15;;;;;;;55.05;19.35;;;5.80;86.90;;;;;;4937110;29;20047;-80
2021/12/19 07:35:45;;;;;;;48.95;19.45;;;5.70;86.90;;;;;;4936706;29;20054;-81
2021/12/19 07:38:18;;;;;;;44.38;18.35;;;5.70;86.90;;;;;;4936988;29;20055;-80
2021/12/19 07:40:47;;;;;;;41.92;18.13;;;5.80;86.90;;;;;;4937215;29;20051;-81
2021/12/19 07:43:14;;;;;;;41.60;17.25;;;5.70;86.90;;;;;;4937166;29;20437;-80
2021/12/19 07:45:42;;;;;;;39.38;17.30;;;5.70;86.90;;;;;;4937542;29;20036;-80
2021/12/19 07:48:10;;;;;;;42.35;16.38;;;5.70;86.90;;;;;;4937170;29;20063;-81
2021/12/19 07:50:37;;;;;;;41.97;17.88;;;5.80;86.90;;;;;;4936299;29;20459;-80
2021/12/19 07:53:04;;;;;;;41.55;17.38;;;5.70;86.90;;;;;;4933588;29;20047;-80
2021/12/19 07:55:32;;;;;;;40.42;17.80;;;5.70;87.00;;;;;;4936382;29;20058;-80
2021/12/19 07:57:59;;;;;;;42.05;16.92;;;5.70;86.90;;;;;;4937147;29;20051;-81
2021/12/19 08:00:27;;;;;;;39.08;16.05;;;5.70;86.90;;;;;;4936446;29;20044;-81
2021/12/19 08:02:55;;;;;;;38.83;15.07;;;5.70;87.00;;;;;;4935667;29;20056;-81
2021/12/19 08:05:22;;;;;;;39.45;15.77;;;5.70;87.00;;;;;;4935558;28;20051;-80
2021/12/19 08:07:55;;;;;;;34.97;14.77;;;5.70;86.90;;;;;;4936432;29;20043;-80
2021/12/19 08:12:49;;;;;;;35.35;14.77;;;5.70;86.90;;;;;;4936233;29;20048;-81
2021/12/19 08:15:17;;;;;;;35.65;15.05;;;5.70;86.90;;;;;;4936509;29;20044;-83
2021/12/19 08:17:46;;;;;;;33.83;14.40;;;5.70;86.90;;;;;;4935355;29;20048;-82
2021/12/19 08:20:15;;;;;;;27.23;12.70;;;5.80;86.90;;;;;;4935385;29;20055;-82
2021/12/19 08:22:42;;;;;;;29.00;12.68;;;5.70;86.90;;;;;;4936125;29;20055;-82
2021/12/19 08:25:09;;;;;;;29.67;12.48;;;5.70;86.90;;;;;;4936330;29;20043;-82
2021/12/19 08:27:37;;;;;;;33.20;13.20;;;5.70;86.90;;;;;;4936054;29;20056;-81
2021/12/19 08:30:06;;;;;;;32.72;11.40;;;5.70;86.90;;;;;;4936128;29;20056;-81
2021/12/19 08:32:33;;;;;;;32.22;11.50;;;5.70;86.90;;;;;;4934927;29;20521;-81
2021/12/19 08:35:00;;;;;;;37.08;12.63;;;5.70;86.90;;;;;;4935621;29;20051;-81
2021/12/19 08:37:27;;;;;;;26.70;10.52;;;5.70;86.90;;;;;;4935977;29;20044;-81
2021/12/19 08:39:55;;;;;;;28.83;11.55;;;5.70;86.80;;;;;;4935928;29;20066;-81
2021/12/19 08:42:23;;;;;;;24.83;11.32;;;5.70;86.80;;;;;;4935568;29;20457;-81
2021/12/19 08:44:50;;;;;;;24.98;12.43;;;5.60;86.80;;;;;;4934662;29;20044;-81
2021/12/19 08:47:17;;;;;;;30.35;11.63;;;5.60;86.80;;;;;;4948162;29;20130;-81
2021/12/19 08:49:45;;;;;;;27.92;11.65;;;5.60;86.80;;;;;;4938678;28;20422;-81
2021/12/19 08:52:12;;;;;;;30.92;11.93;;;5.60;86.80;;;;;;4935806;29;20048;-81
2021/12/19 08:54:39;;;;;;;26.65;11.38;;;5.60;86.80;;;;;;4935699;29;20054;-81
2021/12/19 08:57:07;;;;;;;29.92;11.40;;;5.50;86.70;;;;;;4935544;29;20231;-81
2021/12/19 08:59:34;;;;;;;26.08;11.50;;;5.50;86.70;;;;;;4934485;29;20054;-81
2021/12/19 09:02:02;;;;;;;27.52;11.57;;;5.50;86.70;;;;;;4935480;29;20054;-81
2021/12/19 09:04:30;;;;;;;25.70;12.00;;;5.50;86.70;;;;;;4935233;29;20044;-80
2021/12/19 09:06:59;;;;;;;28.30;12.75;;;5.50;86.70;;;;;;4935784;29;20055;-81
2021/12/19 09:09:27;;;;;;;35.33;15.60;;;5.50;86.70;;;;;;4935249;29;20090;-81
2021/12/19 09:11:54;;;;;;;30.40;14.00;;;5.50;86.70;;;;;;4934762;29;20475;-81
2021/12/19 09:14:21;;;;;;;35.78;15.02;;;5.50;86.70;;;;;;4934347;28;20510;-81
2021/12/19 09:16:48;;;;;;;33.55;15.38;;;5.50;86.70;;;;;;4935645;29;20063;-81
2021/12/19 09:19:17;;;;;;;34.38;15.20;;;5.50;86.80;;;;;;4935153;29;20051;-81
2021/12/19 09:21:44;;;;;;;33.63;16.75;;;5.50;86.80;;;;;;4935510;29;20057;-81
2021/12/19 09:24:11;;;;;;;39.17;19.00;;;5.50;86.80;;;;;;4935518;29;20525;-81
2021/12/19 09:26:39;;;;;;;42.25;20.60;;;5.50;86.80;;;;;;4934551;29;20056;-81
2021/12/19 09:29:06;;;;;;;46.00;20.83;;;5.50;86.80;;;;;;4935069;29;20051;-81
2021/12/19 09:31:33;;;;;;;45.42;21.83;;;5.50;86.80;;;;;;4935410;29;20058;-81
2021/12/19 09:34:00;;;;;;;41.67;19.95;;;5.50;86.80;;;;;;4935020;29;20047;-81
2021/12/19 09:36:28;;;;;;;42.75;21.50;;;5.50;86.80;;;;;;4935411;29;20103;-80
2021/12/19 09:38:55;;;;;;;40.95;20.30;;;5.50;86.80;;;;;;4934599;29;20510;-81
2021/12/19 09:41:29;;;;;;;36.58;19.08;;;5.50;86.90;;;;;;4934272;28;20055;-81
2021/12/19 09:43:58;;;;;;;41.92;20.90;;;5.50;86.90;;;;;;4934857;29;20062;-81
2021/12/19 09:46:29;;;;;;;38.30;20.13;;;5.50;86.90;;;;;;4940249;29;20514;-81
2021/12/19 09:48:58;;;;;;;47.33;22.55;;;5.50;86.90;;;;;;4944480;28;20055;-81
2021/12/19 09:51:25;;;;;;;49.63;24.95;;;5.50;86.90;;;;;;4935316;29;20052;-80
2021/12/19 09:53:52;;;;;;;40.60;20.58;;;5.50;86.90;;;;;;4934475;29;20055;-81
2021/12/19 09:56:20;;;;;;;38.42;20.48;;;5.50;86.90;;;;;;4934121;28;20052;-81
2021/12/19 09:58:49;;;;;;;41.80;20.58;;;5.50;86.90;;;;;;4934846;29;20043;-81
2021/12/19 10:01:17;;;;;;;49.95;21.17;;;5.50;86.90;;;;;;4934936;29;20403;-81
2021/12/19 10:03:44;;;;;;;44.28;21.20;;;5.50;86.90;;;;;;4934809;29;20048;-81
2021/12/19 10:06:30;;;;;;;45.40;22.23;;;5.50;86.90;;;;;;4934875;29;20053;-81
2021/12/19 10:09:12;;;;;;;44.13;21.70;;;5.50;86.90;;;;;;4933146;29;20055;-81
2021/12/19 10:14:34;;;;;;;46.33;22.90;;;5.50;86.90;;;;;;4935395;29;20052;-81
2021/12/19 10:17:15;;;;;;;44.38;21.27;;;5.50;86.90;;;;;;4934650;29;20070;-81
2021/12/19 10:19:50;;;;;;;41.60;21.90;;;5.60;86.90;;;;;;4935235;29;20574;-81
2021/12/19 10:22:35;;;;;;;44.00;20.85;;;5.50;86.90;;;;;;4932712;29;20638;-81
2021/12/19 10:25:17;;;;;;;39.10;19.80;;;5.50;87.00;;;;;;4937867;29;20060;-81
2021/12/19 10:27:55;;;;;;;41.80;20.42;;;5.50;86.90;;;;;;4938098;29;20048;-81
2021/12/19 10:30:46;;;;;;;46.80;20.65;;;5.50;86.90;;;;;;4924343;29;20052;-81
2021/12/19 10:33:16;;;;;;;42.72;20.15;;;5.60;87.00;;;;;;4922551;29;20039;-81
2021/12/19 10:35:49;;;;;;;43.63;21.25;;;5.60;87.00;;;;;;4933751;29;20056;-81
2021/12/19 10:38:20;;;;;;;40.70;20.58;;;5.60;87.00;;;;;;4938441;29;20052;-81
2021/12/19 10:40:51;;;;;;;45.67;21.25;;;5.60;87.00;;;;;;4937565;29;20048;-82
2021/12/19 10:43:19;;;;;;;44.65;19.50;;;5.60;87.00;;;;;;4937991;29;20059;-81
2021/12/19 10:45:52;;;;;;;51.17;20.98;;;5.60;87.00;;;;;;4938121;29;20050;-81
2021/12/19 10:48:36;;;;;;;42.53;19.42;;;5.60;87.00;;;;;;4923472;29;20533;-81
2021/12/19 10:51:18;;;;;;;43.10;18.60;;;5.60;87.00;;;;;;4937676;29;20047;-81
2021/12/19 10:53:49;;;;;;;49.22;18.70;;;5.70;87.00;;;;;;4933269;29;20130;-81
2021/12/19 10:56:19;;;;;;;42.55;19.67;;;5.70;87.00;;;;;;4937205;29;20062;-81
2021/12/19 10:58:54;;;;;;;44.20;19.50;;;5.70;87.00;;;;;;4937501;29;20048;-81
2021/12/19 11:01:29;;;;;;;47.72;19.63;;;5.70;87.00;;;;;;4937129;29;20102;-81
2021/12/19 11:04:06;;;;;;;45.00;19.80;;;5.70;87.10;;;;;;4937588;29;20056;-81
2021/12/19 11:06:35;;;;;;;52.13;19.75;;;5.70;87.10;;;;;;4937638;29;20039;-81
2021/12/19 11:09:18;;;;;;;44.90;18.35;;;5.70;87.10;;;;;;4937205;29;20514;-81
2021/12/19 11:11:48;;;;;;;39.65;17.58;;;5.70;87.10;;;;;;4932779;29;20062;-81
2021/12/19 11:14:23;;;;;;;47.08;18.88;;;5.70;87.10;;;;;;4937483;29;20052;-81
2021/12/19 11:17:00;;;;;;;41.53;17.98;;;5.80;87.10;;;;;;4935977;29;20058;-81
2021/12/19 11:19:27;;;;;;;39.15;16.80;;;5.80;87.10;;;;;;4937307;29;20533;-81
2021/12/19 11:22:23;;;;;;;42.72;17.95;;;5.80;87.10;;;;;;4937100;29;20123;-81
2021/12/19 11:24:58;;;;;;;41.83;18.23;;;5.80;87.10;;;;;;4936723;29;20146;-81
2021/12/19 11:27:28;;;;;;;41.67;18.23;;;5.80;87.10;;;;;;4937353;29;20253;-81
2021/12/19 11:29:57;;;;;;;42.00;17.92;;;5.80;87.10;;;;;;4937130;29;20047;-81
2021/12/19 11:32:37;;;;;;;42.03;18.23;;;5.80;87.10;;;;;;4933501;29;20048;-81
2021/12/19 11:35:11;;;;;;;44.03;17.55;;;5.90;87.10;;;;;;4937126;29;20522;-81
2021/12/19 11:37:43;;;;;;;42.67;18.35;;;5.90;87.20;;;;;;4937111;29;20048;-81
2021/12/19 11:40:16;;;;;;;44.95;18.60;;;5.90;87.20;;;;;;4936239;29;20048;-82
2021/12/19 11:42:43;;;;;;;48.22;17.90;;;5.90;87.20;;;;;;4936994;29;20047;-81
2021/12/19 11:45:32;;;;;;;39.08;17.10;;;5.90;87.20;;;;;;4937299;29;20050;-81
2021/12/19 11:48:18;;;;;;;38.50;16.33;;;5.90;87.10;;;;;;4935069;29;20054;-81
2021/12/19 11:50:49;;;;;;;44.33;17.63;;;5.90;87.10;;;;;;4932374;29;20058;-81
2021/12/19 11:53:16;;;;;;;41.25;18.67;;;6.00;87.10;;;;;;4936445;29;20059;-81
2021/12/19 11:55:49;;;;;;;38.58;17.70;;;5.90;87.10;;;;;;4936260;29;20055;-81
2021/12/19 11:58:28;;;;;;;39.65;17.65;;;5.90;87.10;;;;;;4936707;29;20095;-81
2021/12/19 12:00:57;;;;;;;39.45;17.17;;;6.00;87.10;;;;;;4936130;29;20055;-81
2021/12/19 12:03:31;;;;;;;39.22;17.63;;;6.00;87.10;;;;;;4936817;29;20052;-81
2021/12/19 12:05:58;;;;;;;44.43;18.43;;;6.00;87.10;;;;;;4936556;29;20048;-81
2021/12/19 12:08:26;;;;;;;38.42;17.63;;;6.00;87.10;;;;;;4933026;29;20296;-81
2021/12/19 12:10:57;;;;;;;38.08;17.13;;;6.00;87.10;;;;;;4936338;29;20054;-81
2021/12/19 12:13:29;;;;;;;35.58;16.27;;;6.00;87.10;;;;;;4936296;29;20240;-81
2021/12/19 12:18:43;;;;;;;35.88;15.57;;;6.00;87.10;;;;;;4936109;29;20052;-81
2021/12/19 12:21:20;;;;;;;34.33;15.15;;;6.00;87.10;;;;;;4936485;29;20052;-81
2021/12/19 12:23:52;;;;;;;32.72;14.45;;;6.00;87.10;;;;;;4931598;29;20058;-81
2021/12/19 12:26:28;;;;;;;31.98;15.38;;;6.10;87.10;;;;;;4936781;29;20058;-81
2021/12/19 12:28:56;;;;;;;30.73;13.95;;;6.10;87.10;;;;;;4936135;29;20052;-81
2021/12/19 12:31:24;;;;;;;33.00;14.48;;;6.00;87.10;;;;;;4935800;29;20062;-81
2021/12/19 12:33:52;;;;;;;31.15;13.27;;;6.10;87.10;;;;;;4936065;29;20066;-81
2021/12/19 12:36:19;;;;;;;30.67;14.13;;;6.10;87.10;;;;;;4936110;29;20056;-81
2021/12/19 12:38:50;;;;;;;34.33;13.18;;;6.00;87.10;;;;;;4934595;29;20052;-81
2021/12/19 12:41:29;;;;;;;30.98;13.45;;;6.10;87.10;;;;;;4936294;29;20058;-81
2021/12/19 12:44:04;;;;;;;27.73;12.13;;;6.10;87.10;;;;;;4934958;29;20048;-81
2021/12/19 12:46:31;;;;;;;29.48;13.25;;;6.10;87.10;;;;;;4935525;29;20057;-81
2021/12/19 12:49:06;;;;;;;27.80;12.98;;;6.10;87.10;;;;;;4935941;29;20077;-81
2021/12/19 12:51:39;;;;;;;28.75;12.32;;;6.10;87.10;;;;;;4935526;29;20047;-81
2021/12/19 12:54:08;;;;;;;24.67;11.52;;;6.10;87.10;;;;;;4935365;29;20047;-81
2021/12/19 12:56:43;;;;;;;23.65;12.27;;;6.10;87.10;;;;;;4934802;29;20541;-81
2021/12/19 12:59:12;;;;;;;25.55;13.32;;;6.10;87.10;;;;;;4935707;28;20518;-81
2021/12/19 13:02:19;;;;;;;26.80;11.15;;;6.20;87.10;;;;;;4935225;29;20044;-81
2021/12/19 13:04:50;;;;;;;25.27;12.13;;;6.10;87.10;;;;;;4935590;29;20048;-81
2021/12/19 13:07:19;;;;;;;28.02;12.00;;;6.10;87.00;;;;;;4935022;29;20048;-81
2021/12/19 13:09:50;;;;;;;25.52;12.07;;;6.10;87.00;;;;;;4935520;29;20051;-81
2021/12/19 13:12:25;;;;;;;22.63;11.77;;;6.10;87.00;;;;;;4920732;29;20127;-81
2021/12/19 13:14:58;;;;;;;22.67;11.52;;;6.10;87.00;;;;;;4934464;29;20066;-81
2021/12/19 13:17:31;;;;;;;23.25;11.13;;;6.20;87.10;;;;;;4932756;29;20525;-81
2021/12/19 13:20:11;;;;;;;23.00;10.68;;;6.10;87.00;;;;;;4935364;29;20150;-81
2021/12/19 13:22:48;;;;;;;21.83;11.50;;;6.10;87.00;;;;;;4934785;29;20047;-81
2021/12/19 13:25:22;;;;;;;22.63;10.52;;;6.10;87.00;;;;;;4930110;29;20052;-81
2021/12/19 13:27:54;;;;;;;;;;;6.10;87.00;;;;;;4930556;29;20048;-81
2021/12/19 13:30:24;;;;;;;20.95;10.27;;;6.10;87.00;;;;;;4935183;29;19926;-81
2021/12/19 13:32:56;;;;;;;21.38;10.80;;;6.10;87.00;;;;;;4934363;29;20074;-81
2021/12/19 13:35:37;;;;;;;19.90;10.23;;;6.10;87.00;;;;;;4934346;28;20418;-81
2021/12/19 13:38:12;;;;;;;20.45;10.40;;;6.10;87.00;;;;;;4934857;29;20055;-81
2021/12/19 13:40:42;;;;;;;20.52;10.52;;;6.10;87.00;;;;;;4935159;29;20079;-81
2021/12/19 13:43:12;;;;;;;22.40;11.10;;;6.10;87.00;;;;;;4935285;29;20054;-81
2021/12/19 13:45:49;;;;;;;23.77;11.55;;;6.10;87.00;;;;;;4935133;29;20048;-81
2021/12/19 13:48:24;;;;;;;18.67;10.65;;;6.10;87.00;;;;;;4935335;29;20055;-81
2021/12/19 13:50:55;;;;;;;20.40;10.77;;;6.10;87.10;;;;;;4934025;29;20058;-81
2021/12/19 13:53:25;;;;;;;18.73;10.20;;;6.20;87.00;;;;;;4950599;28;20392;-81
2021/12/19 13:56:05;;;;;;;20.40;10.57;;;6.10;87.00;;;;;;4937265;29;20055;-81
2021/12/19 13:58:34;;;;;;;19.38;10.27;;;6.10;87.00;;;;;;4938796;29;20043;-82
2021/12/19 14:01:34;;;;;;;19.63;10.00;;;6.10;87.00;;;;;;4938397;29;20130;-81
2021/12/19 14:04:18;;;;;;;19.15;10.00;;;6.10;87.00;;;;;;4937844;29;20052;-81
2021/12/19 14:06:46;;;;;;;17.98;9.73;;;6.10;87.00;;;;;;4938440;29;20052;-81